Kezdőlap
METAR-TAF:

METAR-TAF

Repülőterek :

Westerly State Airport

Westerly, Rhode Island, Amerikai Egyesült Államok

földrajzi szélesség: 41-20-59N, földrajzi hosszúság: 071-47-56W, magasság: 24 m

Jelenlegi meteorológiai megfigyelések

A jelentés 38 perccel ezelõtt készült, 17:53 UTC
Nyugat-délnyugati szél 7 kt
Hőmérséklet 9°C
Páratartalom 34%
Légköri nyomás 1021 hPa
Látótávolság: 16.1 km
Derült ég

METAR: KWST 231753Z AUTO 24007KT 10SM CLR 09/M06 A3014 RMK AO2 SLP207 T00891061 10089 21039 58020

Idő: 13:31 (18:31 UTC)


TAF: hiányzik

Meteorológiai megfigyelések és előrejelzések több, mint 4000 repülőtéren (METAR és TAF jelentéseket).

A térképen piros és sárga pontok jelzik az elérhető meteorológiai állomásokat.

Mozgassa az egeret a pont fölött, hogy megjelenjen az állomás neve.

Azután kattintson az időjárási megfigyelések és előrejelzések megtekintéséhez.

A térkép megváltoztatása: kattintson a fekete keresztel jelölt zöld gombra ráközelítéshez, a vonallal jelölt zöld gombra távolításhoz, vagy a zöld nyilakra a szomszédos térképek eléréséhez.


METAR-TAF: